« Back
NWS Peachtree City, Ga » Text Product » ATL Terminal Aerodrome Forecast


Printer-friendly Version
Current Version              Previous Versions:   1  2  3  4  5  6  7  8  9  

Terminal Aerodrome Forecast

514
FTUS42 KFFC 061130
TAFATL
TAF
KATL 061130Z 0612/0718 31012KT P6SM FEW100 FEW200
     FM061400 33012G22KT P6SM SKC
     FM061700 34020G30KT P6SM FEW050
     FM070000 32012KT P6SM SKC
     FM070600 32009KT P6SM SKC
     FM071500 30011KT P6SM FEW250=

USA.gov is the U.S. government's official web portal to all federal, state and local government web resources and services.